LIPY/AOI METAR and TAF weather

Enter ICAO airport designator
Station Type Date Time Source
LIPY METAR 2020/11/25 21:50 UTC NOAA

LIPY 252150Z AUTO 18003KT 3200 BR NCD 05/05 Q1024


Station Type Date Time Source
LIPY Decoded METAR 2020/11/25 21:50 UTC NOAA

Falconara, Italy (LIPY) 43-37N 013-22E 10M
Nov 25, 2020 - 04:50 PM EST / 2020.11.25 2150 UTC
Wind: from the S (180 degrees) at 3 MPH (3 KT):0
Visibility: 1 mile(s):0
Weather: mist
Temperature: 41 F (5 C)
Dew Point: 41 F (5 C)
Relative Humidity: 100%
Pressure (altimeter): 30.24 in. Hg (1024 hPa)
ob: LIPY 252150Z AUTO 18003KT 3200 BR NCD 05/05 Q1024
cycle: 22

Station Type Date Time Source
LIPY TAF 2020/11/25 18:26 UTC NOAA

TAF LIPY 251700Z 2518/2618 VRB05KT 4000 BR NSC
TEMPO 2621/2607 1200 BCFG
BECMG 2607/2610 8000

Example: see airport list